sensor_id;sensor_type;location;lat;lon;timestamp;pressure;altitude;pressure_sealevel;temperature;humidity
63554;BME280;49699;48.072;7.800;2023-05-10T00:00:04;98992.78;;;13.68;91.39
63554;BME280;49699;48.072;7.800;2023-05-10T00:02:38;98985.06;;;13.67;91.31
63554;BME280;49699;48.072;7.800;2023-05-10T00:05:04;98991.22;;;13.66;91.29
63554;BME280;49699;48.072;7.800;2023-05-10T00:07:29;98983.38;;;13.66;91.33
63554;BME280;49699;48.072;7.800;2023-05-10T00:09:54;98986.00;;;13.66;91.37
63554;BME280;49699;48.072;7.800;2023-05-10T00:12:20;98989.44;;;13.66;91.26
63554;BME280;49699;48.072;7.800;2023-05-10T00:14:45;98984.34;;;13.65;91.13
63554;BME280;49699;48.072;7.800;2023-05-10T00:17:10;98987.78;;;13.65;91.09
63554;BME280;49699;48.072;7.800;2023-05-10T00:19:35;98981.84;;;13.63;91.12
63554;BME280;49699;48.072;7.800;2023-05-10T00:22:01;98989.56;;;13.65;91.20
63554;BME280;49699;48.072;7.800;2023-05-10T00:24:26;98980.06;;;13.64;91.09
63554;BME280;49699;48.072;7.800;2023-05-10T00:26:51;98975.66;;;13.64;90.85
63554;BME280;49699;48.072;7.800;2023-05-10T00:29:17;98976.59;;;13.63;90.74
63554;BME280;49699;48.072;7.800;2023-05-10T00:31:43;98977.44;;;13.64;90.73
63554;BME280;49699;48.072;7.800;2023-05-10T00:34:08;98982.66;;;13.64;90.63
63554;BME280;49699;48.072;7.800;2023-05-10T00:36:33;98980.16;;;13.62;90.62
63554;BME280;49699;48.072;7.800;2023-05-10T00:38:59;98986.38;;;13.61;90.52
63554;BME280;49699;48.072;7.800;2023-05-10T00:41:24;98974.25;;;13.60;90.50
63554;BME280;49699;48.072;7.800;2023-05-10T00:43:50;98966.63;;;13.57;90.55
63554;BME280;49699;48.072;7.800;2023-05-10T00:46:15;98964.13;;;13.55;90.56
63554;BME280;49699;48.072;7.800;2023-05-10T00:48:41;98967.81;;;13.53;90.49
63554;BME280;49699;48.072;7.800;2023-05-10T00:51:06;98972.22;;;13.52;90.64
63554;BME280;49699;48.072;7.800;2023-05-10T00:53:32;98970.66;;;13.50;90.60
63554;BME280;49699;48.072;7.800;2023-05-10T00:55:58;98966.28;;;13.50;90.65
63554;BME280;49699;48.072;7.800;2023-05-10T00:58:24;98970.78;;;13.48;90.60
63554;BME280;49699;48.072;7.800;2023-05-10T01:00:53;98968.16;;;13.48;90.63
63554;BME280;49699;48.072;7.800;2023-05-10T01:03:19;98973.41;;;13.48;90.42
63554;BME280;49699;48.072;7.800;2023-05-10T01:05:46;98975.06;;;13.49;90.49
63554;BME280;49699;48.072;7.800;2023-05-10T01:08:11;98974.22;;;13.49;90.34
63554;BME280;49699;48.072;7.800;2023-05-10T01:10:37;98978.63;;;13.48;90.21
63554;BME280;49699;48.072;7.800;2023-05-10T01:13:02;98976.25;;;13.45;90.36
63554;BME280;49699;48.072;7.800;2023-05-10T01:15:28;98966.88;;;13.43;90.46
63554;BME280;49699;48.072;7.800;2023-05-10T01:17:53;98974.84;;;13.41;90.48
63554;BME280;49699;48.072;7.800;2023-05-10T01:20:19;98975.06;;;13.38;90.32
63554;BME280;49699;48.072;7.800;2023-05-10T01:25:37;98981.22;;;13.37;90.55
63554;BME280;49699;48.072;7.800;2023-05-10T01:30:57;98976.97;;;13.36;90.55
63554;BME280;49699;48.072;7.800;2023-05-10T01:36:21;98984.31;;;13.31;90.64
63554;BME280;49699;48.072;7.800;2023-05-10T01:43:55;98987.03;;;13.30;90.72
63554;BME280;49699;48.072;7.800;2023-05-10T01:46:43;98987.97;;;13.29;90.88
63554;BME280;49699;48.072;7.800;2023-05-10T01:49:09;98981.19;;;13.26;91.05
63554;BME280;49699;48.072;7.800;2023-05-10T01:51:50;98982.88;;;13.27;90.88
63554;BME280;49699;48.072;7.800;2023-05-10T01:54:19;98981.34;;;13.25;90.88
63554;BME280;49699;48.072;7.800;2023-05-10T01:56:44;98984.78;;;13.25;90.88
63554;BME280;49699;48.072;7.800;2023-05-10T01:59:13;98988.34;;;13.24;90.95
63554;BME280;49699;48.072;7.800;2023-05-10T02:01:40;98993.56;;;13.24;90.99
63554;BME280;49699;48.072;7.800;2023-05-10T02:04:07;98996.19;;;13.24;90.93
63554;BME280;49699;48.072;7.800;2023-05-10T02:06:33;98991.91;;;13.23;90.99
63554;BME280;49699;48.072;7.800;2023-05-10T02:09:00;98994.63;;;13.22;91.03
63554;BME280;49699;48.072;7.800;2023-05-10T02:11:26;98999.88;;;13.22;90.98
63554;BME280;49699;48.072;7.800;2023-05-10T02:13:52;99004.25;;;13.21;91.02
63554;BME280;49699;48.072;7.800;2023-05-10T02:16:24;99000.81;;;13.20;91.04
63554;BME280;49699;48.072;7.800;2023-05-10T02:18:50;98999.88;;;13.22;91.23
63554;BME280;49699;48.072;7.800;2023-05-10T02:21:17;99005.91;;;13.22;90.96
63554;BME280;49699;48.072;7.800;2023-05-10T02:23:44;99004.13;;;13.23;90.74
63554;BME280;49699;48.072;7.800;2023-05-10T02:26:10;98997.97;;;13.24;90.53
63554;BME280;49699;48.072;7.800;2023-05-10T02:28:36;99002.38;;;13.23;90.52
63554;BME280;49699;48.072;7.800;2023-05-10T02:31:02;99011.97;;;13.23;90.46
63554;BME280;49699;48.072;7.800;2023-05-10T02:33:28;99012.81;;;13.23;90.42
63554;BME280;49699;48.072;7.800;2023-05-10T02:35:55;99022.44;;;13.23;90.38
63554;BME280;49699;48.072;7.800;2023-05-10T02:38:21;99022.44;;;13.23;90.46
63554;BME280;49699;48.072;7.800;2023-05-10T02:40:49;99017.31;;;13.21;90.49
63554;BME280;49699;48.072;7.800;2023-05-10T02:43:15;99015.53;;;13.22;90.33
63554;BME280;49699;48.072;7.800;2023-05-10T02:45:42;99017.31;;;13.21;90.48
63554;BME280;49699;48.072;7.800;2023-05-10T02:48:08;99014.72;;;13.21;90.34
63554;BME280;49699;48.072;7.800;2023-05-10T02:50:33;99015.66;;;13.20;90.38
63554;BME280;49699;48.072;7.800;2023-05-10T02:53:00;99025.16;;;13.21;90.36
63554;BME280;49699;48.072;7.800;2023-05-10T02:55:31;99015.53;;;13.22;90.27
63554;BME280;49699;48.072;7.800;2023-05-10T02:58:01;99012.94;;;13.22;90.26
63554;BME280;49699;48.072;7.800;2023-05-10T03:00:27;99006.88;;;13.21;90.28
63554;BME280;49699;48.072;7.800;2023-05-10T03:02:53;99019.09;;;13.20;90.26
63554;BME280;49699;48.072;7.800;2023-05-10T03:05:19;99019.94;;;13.21;90.10
63554;BME280;49699;48.072;7.800;2023-05-10T03:07:44;99023.38;;;13.22;90.07
63554;BME280;49699;48.072;7.800;2023-05-10T03:10:10;99024.31;;;13.20;90.15
63554;BME280;49699;48.072;7.800;2023-05-10T03:12:45;99030.50;;;13.19;89.97
63554;BME280;49699;48.072;7.800;2023-05-10T03:17:44;99028.72;;;13.20;90.06
63554;BME280;49699;48.072;7.800;2023-05-10T03:20:12;99026.09;;;13.20;89.95
63554;BME280;49699;48.072;7.800;2023-05-10T03:22:44;99027.06;;;13.19;89.93
63554;BME280;49699;48.072;7.800;2023-05-10T03:25:10;99019.09;;;13.20;90.00
63554;BME280;49699;48.072;7.800;2023-05-10T03:27:39;99026.22;;;13.18;89.80
63554;BME280;49699;48.072;7.800;2023-05-10T03:30:05;99024.56;;;13.17;89.98
63554;BME280;49699;48.072;7.800;2023-05-10T03:32:32;99035.94;;;13.16;89.89
63554;BME280;49699;48.072;7.800;2023-05-10T03:35:00;99033.44;;;13.15;89.84
63554;BME280;49699;48.072;7.800;2023-05-10T03:37:25;99025.69;;;13.13;90.09
63554;BME280;49699;48.072;7.800;2023-05-10T03:39:50;99032.69;;;13.13;89.89
63554;BME280;49699;48.072;7.800;2023-05-10T03:42:16;99020.78;;;13.09;90.15
63554;BME280;49699;48.072;7.800;2023-05-10T03:44:43;99026.28;;;13.06;90.27
63554;BME280;49699;48.072;7.800;2023-05-10T03:47:08;99021.16;;;13.04;90.30
63554;BME280;49699;48.072;7.800;2023-05-10T03:49:33;99025.66;;;13.02;90.31
63554;BME280;49699;48.072;7.800;2023-05-10T03:51:59;99025.78;;;13.01;90.48
63554;BME280;49699;48.072;7.800;2023-05-10T03:54:25;99032.88;;;12.99;90.51
63554;BME280;49699;48.072;7.800;2023-05-10T03:56:51;99034.56;;;13.00;90.69
63554;BME280;49699;48.072;7.800;2023-05-10T03:59:18;99032.88;;;12.99;90.65
63554;BME280;49699;48.072;7.800;2023-05-10T04:01:43;99037.06;;;13.01;90.62
63554;BME280;49699;48.072;7.800;2023-05-10T04:04:08;99034.44;;;13.01;90.65
63554;BME280;49699;48.072;7.800;2023-05-10T04:06:33;99038.72;;;13.02;90.46
63554;BME280;49699;48.072;7.800;2023-05-10T04:08:59;99033.59;;;13.01;90.42
63554;BME280;49699;48.072;7.800;2023-05-10T04:11:26;99035.50;;;12.99;90.40
63554;BME280;49699;48.072;7.800;2023-05-10T04:13:51;99045.22;;;12.97;90.64
63554;BME280;49699;48.072;7.800;2023-05-10T04:16:17;99038.31;;;12.96;90.67
63554;BME280;49699;48.072;7.800;2023-05-10T04:18:42;99035.81;;;12.94;90.74
63554;BME280;49699;48.072;7.800;2023-05-10T04:21:11;99040.94;;;12.96;90.76
63554;BME280;49699;48.072;7.800;2023-05-10T04:23:36;99030.50;;;12.96;90.56
63554;BME280;49699;48.072;7.800;2023-05-10T04:26:02;99033.09;;;12.96;90.50
63554;BME280;49699;48.072;7.800;2023-05-10T04:28:27;99036.78;;;12.93;90.52
63554;BME280;49699;48.072;7.800;2023-05-10T04:30:53;99033.44;;;12.91;90.61
63554;BME280;49699;48.072;7.800;2023-05-10T04:33:18;99036.03;;;12.91;90.55
63554;BME280;49699;48.072;7.800;2023-05-10T04:35:43;99029.16;;;12.90;90.50
63554;BME280;49699;48.072;7.800;2023-05-10T04:38:10;99030.97;;;12.90;90.46
63554;BME280;49699;48.072;7.800;2023-05-10T04:40:35;99031.78;;;12.90;90.57
63554;BME280;49699;48.072;7.800;2023-05-10T04:43:00;99034.38;;;12.90;90.36
63554;BME280;49699;48.072;7.800;2023-05-10T04:45:26;99031.78;;;12.90;90.27
63554;BME280;49699;48.072;7.800;2023-05-10T04:47:51;99036.03;;;12.91;90.19
63554;BME280;49699;48.072;7.800;2023-05-10T04:50:16;99041.28;;;12.91;89.97
63554;BME280;49699;48.072;7.800;2023-05-10T04:52:42;99043.88;;;12.91;89.93
63554;BME280;49699;48.072;7.800;2023-05-10T04:55:07;99047.44;;;12.90;89.95
63554;BME280;49699;48.072;7.800;2023-05-10T04:57:34;99052.66;;;12.90;89.91
63554;BME280;49699;48.072;7.800;2023-05-10T04:59:59;99050.06;;;12.90;89.51
63554;BME280;49699;48.072;7.800;2023-05-10T05:02:25;99048.28;;;12.91;89.77
63554;BME280;49699;48.072;7.800;2023-05-10T05:04:50;99047.44;;;12.90;89.58
63554;BME280;49699;48.072;7.800;2023-05-10T05:07:16;99056.09;;;12.91;89.55
63554;BME280;49699;48.072;7.800;2023-05-10T05:09:41;99052.66;;;12.90;89.50
63554;BME280;49699;48.072;7.800;2023-05-10T05:12:06;99057.09;;;12.90;89.47
63554;BME280;49699;48.072;7.800;2023-05-10T05:14:32;99059.69;;;12.90;89.36
63554;BME280;49699;48.072;7.800;2023-05-10T05:16:57;99058.72;;;12.91;89.30
63554;BME280;49699;48.072;7.800;2023-05-10T05:19:23;99062.91;;;12.93;89.20
63554;BME280;49699;48.072;7.800;2023-05-10T05:21:48;99060.16;;;12.95;89.07
63554;BME280;49699;48.072;7.800;2023-05-10T05:24:14;99072.28;;;12.96;88.99
63554;BME280;49699;48.072;7.800;2023-05-10T05:26:39;99081.78;;;12.97;88.88
63554;BME280;49699;48.072;7.800;2023-05-10T05:29:04;99081.56;;;13.00;88.83
63554;BME280;49699;48.072;7.800;2023-05-10T05:31:29;99082.28;;;13.02;88.71
63554;BME280;49699;48.072;7.800;2023-05-10T05:33:55;99082.41;;;13.00;88.62
63554;BME280;49699;48.072;7.800;2023-05-10T05:36:20;99079.69;;;13.02;88.43
63554;BME280;49699;48.072;7.800;2023-05-10T05:38:46;99074.56;;;13.00;88.56
63554;BME280;49699;48.072;7.800;2023-05-10T05:41:11;99085.03;;;13.00;88.51
63554;BME280;49699;48.072;7.800;2023-05-10T05:43:37;99094.63;;;13.00;88.47
63554;BME280;49699;48.072;7.800;2023-05-10T05:46:02;99094.75;;;12.98;88.38
63554;BME280;49699;48.072;7.800;2023-05-10T05:48:29;99105.09;;;13.00;88.38
63554;BME280;49699;48.072;7.800;2023-05-10T05:50:54;99112.91;;;13.00;88.37
63554;BME280;49699;48.072;7.800;2023-05-10T05:53:20;99113.03;;;12.98;88.41
63554;BME280;49699;48.072;7.800;2023-05-10T05:55:56;99107.91;;;12.97;88.54
63554;BME280;49699;48.072;7.800;2023-05-10T05:58:22;99105.63;;;12.92;88.57
63554;BME280;49699;48.072;7.800;2023-05-10T06:00:47;99114.09;;;12.96;88.66
63554;BME280;49699;48.072;7.800;2023-05-10T06:03:13;99118.38;;;12.97;88.78
63554;BME280;49699;48.072;7.800;2023-05-10T06:05:38;99119.31;;;12.96;88.73
63554;BME280;49699;48.072;7.800;2023-05-10T06:08:03;99126.31;;;12.95;88.75
63554;BME280;49699;48.072;7.800;2023-05-10T06:10:29;99129.75;;;12.96;88.93
63554;BME280;49699;48.072;7.800;2023-05-10T06:12:55;99128.81;;;12.97;88.91
63554;BME280;49699;48.072;7.800;2023-05-10T06:15:21;99127.88;;;12.98;89.04
63554;BME280;49699;48.072;7.800;2023-05-10T06:17:46;99130.47;;;12.98;89.03
63554;BME280;49699;48.072;7.800;2023-05-10T06:20:14;99130.47;;;12.98;89.33
63554;BME280;49699;48.072;7.800;2023-05-10T06:22:39;99127.97;;;12.96;89.24
63554;BME280;49699;48.072;7.800;2023-05-10T06:25:05;99134.16;;;12.95;89.28
63554;BME280;49699;48.072;7.800;2023-05-10T06:27:30;99143.13;;;12.91;89.52
63554;BME280;49699;48.072;7.800;2023-05-10T06:29:55;99142.31;;;12.91;89.49
63554;BME280;49699;48.072;7.800;2023-05-10T06:32:20;99144.22;;;12.89;89.60
63554;BME280;49699;48.072;7.800;2023-05-10T06:34:46;99144.22;;;12.89;89.75
63554;BME280;49699;48.072;7.800;2023-05-10T06:37:11;99145.25;;;12.86;89.64
63554;BME280;49699;48.072;7.800;2023-05-10T06:39:37;99147.97;;;12.84;89.81
63554;BME280;49699;48.072;7.800;2023-05-10T06:42:02;99150.69;;;12.83;89.85
63554;BME280;49699;48.072;7.800;2023-05-10T06:44:31;99149.97;;;12.81;90.07
63554;BME280;49699;48.072;7.800;2023-05-10T06:46:56;99144.75;;;12.81;90.28
63554;BME280;49699;48.072;7.800;2023-05-10T06:49:21;99156.75;;;12.83;89.98
63554;BME280;49699;48.072;7.800;2023-05-10T06:51:47;99153.00;;;12.88;90.03
63554;BME280;49699;48.072;7.800;2023-05-10T06:54:13;99161.31;;;12.93;90.04
63554;BME280;49699;48.072;7.800;2023-05-10T06:56:38;99153.16;;;12.97;89.76
63554;BME280;49699;48.072;7.800;2023-05-10T06:59:04;99150.22;;;13.02;89.54
63554;BME280;49699;48.072;7.800;2023-05-10T07:01:29;99151.69;;;13.06;89.33
63554;BME280;49699;48.072;7.800;2023-05-10T07:03:54;99152.69;;;13.16;89.17
63554;BME280;49699;48.072;7.800;2023-05-10T07:06:20;99154.19;;;13.31;88.59
63554;BME280;49699;48.072;7.800;2023-05-10T07:08:45;99159.34;;;13.44;87.86
63554;BME280;49699;48.072;7.800;2023-05-10T07:11:11;99158.56;;;13.54;87.43
63554;BME280;49699;48.072;7.800;2023-05-10T07:13:36;99160.47;;;13.64;86.98
63554;BME280;49699;48.072;7.800;2023-05-10T07:16:03;99159.91;;;13.71;86.40
63554;BME280;49699;48.072;7.800;2023-05-10T07:18:29;99156.50;;;13.82;85.76
63554;BME280;49699;48.072;7.800;2023-05-10T07:20:54;99160.59;;;13.97;85.15
63554;BME280;49699;48.072;7.800;2023-05-10T07:23:20;99161.09;;;14.13;84.46
63554;BME280;49699;48.072;7.800;2023-05-10T07:25:48;99159.75;;;14.19;83.55
63554;BME280;49699;48.072;7.800;2023-05-10T07:28:14;99161.44;;;14.20;83.53
63554;BME280;49699;48.072;7.800;2023-05-10T07:30:39;99167.28;;;14.23;83.68
63554;BME280;49699;48.072;7.800;2023-05-10T07:33:05;99167.25;;;14.35;83.32
63554;BME280;49699;48.072;7.800;2023-05-10T07:35:30;99159.94;;;14.51;82.57
63554;BME280;49699;48.072;7.800;2023-05-10T07:37:56;99175.75;;;14.72;81.51
63554;BME280;49699;48.072;7.800;2023-05-10T07:40:21;99169.03;;;14.90;80.81
63554;BME280;49699;48.072;7.800;2023-05-10T07:42:46;99173.94;;;14.94;80.14
63554;BME280;49699;48.072;7.800;2023-05-10T07:45:12;99174.69;;;14.85;79.94
63554;BME280;49699;48.072;7.800;2023-05-10T07:47:37;99170.13;;;14.87;79.99
63554;BME280;49699;48.072;7.800;2023-05-10T07:50:02;99175.25;;;15.00;79.48
63554;BME280;49699;48.072;7.800;2023-05-10T07:52:28;99172.69;;;15.21;78.61
63554;BME280;49699;48.072;7.800;2023-05-10T07:54:53;99170.81;;;15.44;77.73
63554;BME280;49699;48.072;7.800;2023-05-10T07:57:18;99168.44;;;15.73;76.37
63554;BME280;49699;48.072;7.800;2023-05-10T07:59:44;99161.22;;;16.07;74.94
63554;BME280;49699;48.072;7.800;2023-05-10T08:02:10;99165.69;;;16.46;73.22
63554;BME280;49699;48.072;7.800;2023-05-10T08:04:35;99164.03;;;16.76;71.94
63554;BME280;49699;48.072;7.800;2023-05-10T08:07:00;99161.97;;;16.79;71.50
63554;BME280;49699;48.072;7.800;2023-05-10T08:09:25;99159.91;;;16.83;71.35
63554;BME280;49699;48.072;7.800;2023-05-10T08:11:51;99152.56;;;16.86;71.33
63554;BME280;49699;48.072;7.800;2023-05-10T08:14:19;99157.13;;;16.84;71.32
63554;BME280;49699;48.072;7.800;2023-05-10T08:16:44;99151.19;;;16.82;71.52
63554;BME280;49699;48.072;7.800;2023-05-10T08:19:10;99145.94;;;16.82;71.19
63554;BME280;49699;48.072;7.800;2023-05-10T08:21:35;99145.09;;;16.82;71.25
63554;BME280;49699;48.072;7.800;2023-05-10T08:24:01;99151.00;;;16.74;71.20
63554;BME280;49699;48.072;7.800;2023-05-10T08:26:26;99149.69;;;16.59;71.56
63554;BME280;49699;48.072;7.800;2023-05-10T08:28:52;99139.56;;;16.45;72.07
63554;BME280;49699;48.072;7.800;2023-05-10T08:31:17;99145.00;;;16.32;72.13
63554;BME280;49699;48.072;7.800;2023-05-10T08:33:43;99135.25;;;16.13;72.88
63554;BME280;49699;48.072;7.800;2023-05-10T08:36:08;99138.94;;;16.01;73.03
63554;BME280;49699;48.072;7.800;2023-05-10T08:38:33;99127.09;;;15.86;73.30
63554;BME280;49699;48.072;7.800;2023-05-10T08:40:59;99137.97;;;15.81;73.34
63554;BME280;49699;48.072;7.800;2023-05-10T08:43:29;99122.09;;;15.83;73.03
63554;BME280;49699;48.072;7.800;2023-05-10T08:45:55;99126.72;;;15.90;72.67
63554;BME280;49699;48.072;7.800;2023-05-10T08:48:22;99129.84;;;16.05;72.10
63554;BME280;49699;48.072;7.800;2023-05-10T08:50:48;99145.06;;;16.11;71.76
63554;BME280;49699;48.072;7.800;2023-05-10T08:53:15;99162.03;;;16.07;68.82
63554;BME280;49699;48.072;7.800;2023-05-10T08:55:41;99170.59;;;15.36;67.24
63554;BME280;49699;48.072;7.800;2023-05-10T08:58:08;99163.38;;;14.51;69.94
63554;BME280;49699;48.072;7.800;2023-05-10T09:00:33;99164.50;;;13.92;72.24
63554;BME280;49699;48.072;7.800;2023-05-10T09:03:00;99179.69;;;13.51;73.26
63554;BME280;49699;48.072;7.800;2023-05-10T09:05:26;99175.78;;;13.22;74.42
63554;BME280;49699;48.072;7.800;2023-05-10T09:07:51;99176.13;;;13.05;74.90
63554;BME280;49699;48.072;7.800;2023-05-10T09:10:17;99186.16;;;12.98;75.36
63554;BME280;49699;48.072;7.800;2023-05-10T09:12:42;99190.16;;;12.91;75.61
63554;BME280;49699;48.072;7.800;2023-05-10T09:15:09;99182.00;;;12.96;75.59
63554;BME280;49699;48.072;7.800;2023-05-10T09:17:35;99190.63;;;13.09;75.18
63554;BME280;49699;48.072;7.800;2023-05-10T09:20:02;99187.06;;;13.23;74.98
63554;BME280;49699;48.072;7.800;2023-05-10T09:22:29;99182.38;;;13.39;74.68
63554;BME280;49699;48.072;7.800;2023-05-10T09:25:10;99188.53;;;13.62;74.11
63554;BME280;49699;48.072;7.800;2023-05-10T09:27:36;99194.78;;;13.83;73.83
63554;BME280;49699;48.072;7.800;2023-05-10T09:30:02;99196.75;;;14.03;73.54
63554;BME280;49699;48.072;7.800;2023-05-10T09:32:38;99201.41;;;14.22;73.50
63554;BME280;49699;48.072;7.800;2023-05-10T09:35:22;99213.00;;;14.42;72.87
63554;BME280;49699;48.072;7.800;2023-05-10T09:37:49;99219.09;;;14.65;72.49
63554;BME280;49699;48.072;7.800;2023-05-10T09:40:18;99212.31;;;14.84;72.23
63554;BME280;49699;48.072;7.800;2023-05-10T09:42:51;99213.22;;;14.94;72.16
63554;BME280;49699;48.072;7.800;2023-05-10T09:45:16;99207.88;;;14.96;72.41
63554;BME280;49699;48.072;7.800;2023-05-10T09:47:42;99204.31;;;14.97;72.45
63554;BME280;49699;48.072;7.800;2023-05-10T09:50:07;99209.31;;;15.00;72.43
63554;BME280;49699;48.072;7.800;2023-05-10T09:53:15;99197.16;;;14.99;72.54
63554;BME280;49699;48.072;7.800;2023-05-10T09:55:44;99199.06;;;14.97;72.69
63554;BME280;49699;48.072;7.800;2023-05-10T09:58:14;99194.19;;;14.92;72.77
63554;BME280;49699;48.072;7.800;2023-05-10T10:00:40;99202.50;;;15.09;72.42
63554;BME280;49699;48.072;7.800;2023-05-10T10:03:07;99197.94;;;15.65;71.30
63554;BME280;49699;48.072;7.800;2023-05-10T10:05:36;99197.00;;;16.28;69.20
63554;BME280;49699;48.072;7.800;2023-05-10T10:08:05;99196.63;;;16.43;68.25
63554;BME280;49699;48.072;7.800;2023-05-10T10:10:31;99201.97;;;16.31;68.33
63554;BME280;49699;48.072;7.800;2023-05-10T10:12:57;99204.09;;;16.17;69.17
63554;BME280;49699;48.072;7.800;2023-05-10T10:15:23;99204.53;;;16.01;69.63
63554;BME280;49699;48.072;7.800;2023-05-10T10:17:48;99208.44;;;15.86;69.63
63554;BME280;49699;48.072;7.800;2023-05-10T10:20:14;99197.72;;;15.89;69.73
63554;BME280;49699;48.072;7.800;2023-05-10T10:22:40;99192.97;;;16.04;69.23
63554;BME280;49699;48.072;7.800;2023-05-10T10:25:05;99189.38;;;16.05;69.35
63554;BME280;49699;48.072;7.800;2023-05-10T10:27:35;99193.41;;;16.09;68.98
63554;BME280;49699;48.072;7.800;2023-05-10T10:30:13;99199.09;;;16.14;68.87
63554;BME280;49699;48.072;7.800;2023-05-10T10:35:27;99199.41;;;16.72;67.61
63554;BME280;49699;48.072;7.800;2023-05-10T10:37:53;99197.75;;;17.30;65.93
63554;BME280;49699;48.072;7.800;2023-05-10T10:40:24;99195.97;;;17.98;64.09
63554;BME280;49699;48.072;7.800;2023-05-10T10:42:50;99198.44;;;18.75;61.83
63554;BME280;49699;48.072;7.800;2023-05-10T10:45:16;99192.81;;;19.33;60.32
63554;BME280;49699;48.072;7.800;2023-05-10T10:47:42;99189.22;;;19.87;58.95
63554;BME280;49699;48.072;7.800;2023-05-10T10:50:08;99190.28;;;20.46;57.36
63554;BME280;49699;48.072;7.800;2023-05-10T10:52:38;99187.19;;;20.93;55.63
63554;BME280;49699;48.072;7.800;2023-05-10T10:55:13;99192.69;;;21.07;54.68
63554;BME280;49699;48.072;7.800;2023-05-10T11:03:08;99177.56;;;21.34;54.15
63554;BME280;49699;48.072;7.800;2023-05-10T11:05:36;99178.25;;;21.60;52.45
63554;BME280;49699;48.072;7.800;2023-05-10T11:10:36;99179.47;;;21.15;50.37
63554;BME280;49699;48.072;7.800;2023-05-10T11:13:02;99179.25;;;20.93;49.96
63554;BME280;49699;48.072;7.800;2023-05-10T11:15:28;99180.00;;;20.69;49.60
63554;BME280;49699;48.072;7.800;2023-05-10T11:17:54;99175.91;;;20.49;47.51
63554;BME280;49699;48.072;7.800;2023-05-10T11:20:20;99173.03;;;20.68;46.78
63554;BME280;49699;48.072;7.800;2023-05-10T11:22:52;99173.31;;;20.99;43.55
63554;BME280;49699;48.072;7.800;2023-05-10T11:25:18;99164.06;;;21.03;43.20
63554;BME280;49699;48.072;7.800;2023-05-10T11:27:43;99167.06;;;21.08;43.30
63554;BME280;49699;48.072;7.800;2023-05-10T11:30:10;99159.25;;;20.98;43.63
63554;BME280;49699;48.072;7.800;2023-05-10T11:32:38;99167.81;;;20.76;43.69
63554;BME280;49699;48.072;7.800;2023-05-10T11:35:07;99171.63;;;20.48;44.13
63554;BME280;49699;48.072;7.800;2023-05-10T11:37:33;99166.75;;;20.35;44.79
63554;BME280;49699;48.072;7.800;2023-05-10T11:39:59;99168.44;;;20.70;44.41
63554;BME280;49699;48.072;7.800;2023-05-10T11:42:25;99165.38;;;20.99;43.46
63554;BME280;49699;48.072;7.800;2023-05-10T11:44:50;99166.00;;;20.85;43.54
63554;BME280;49699;48.072;7.800;2023-05-10T11:47:15;99160.78;;;20.59;44.41
63554;BME280;49699;48.072;7.800;2023-05-10T11:49:44;99166.88;;;20.33;44.69
63554;BME280;49699;48.072;7.800;2023-05-10T11:52:09;99166.44;;;20.12;45.01
63554;BME280;49699;48.072;7.800;2023-05-10T11:54:36;99156.22;;;19.91;45.56
63554;BME280;49699;48.072;7.800;2023-05-10T11:57:01;99164.91;;;19.84;46.01
63554;BME280;49699;48.072;7.800;2023-05-10T11:59:27;99157.69;;;19.86;45.86
63554;BME280;49699;48.072;7.800;2023-05-10T12:01:52;99156.63;;;19.79;46.21
63554;BME280;49699;48.072;7.800;2023-05-10T12:04:17;99162.59;;;19.63;46.40
63554;BME280;49699;48.072;7.800;2023-05-10T12:06:43;99162.72;;;19.43;46.88
63554;BME280;49699;48.072;7.800;2023-05-10T12:09:09;99164.28;;;19.19;47.31
63554;BME280;49699;48.072;7.800;2023-05-10T12:11:37;99155.44;;;18.92;47.85
63554;BME280;49699;48.072;7.800;2023-05-10T12:14:03;99156.28;;;18.65;48.62
63554;BME280;49699;48.072;7.800;2023-05-10T12:16:29;99162.47;;;18.37;49.45
63554;BME280;49699;48.072;7.800;2023-05-10T12:18:58;99165.03;;;18.10;50.16
63554;BME280;49699;48.072;7.800;2023-05-10T12:21:24;99164.69;;;17.85;50.95
63554;BME280;49699;48.072;7.800;2023-05-10T12:23:50;99155.13;;;17.75;50.77
63554;BME280;49699;48.072;7.800;2023-05-10T12:26:16;99164.56;;;17.87;50.46
63554;BME280;49699;48.072;7.800;2023-05-10T12:28:41;99170.16;;;18.11;49.98
63554;BME280;49699;48.072;7.800;2023-05-10T12:31:07;99166.00;;;18.18;49.82
63554;BME280;49699;48.072;7.800;2023-05-10T12:33:36;99165.34;;;18.07;49.74
63554;BME280;49699;48.072;7.800;2023-05-10T12:36:04;99167.56;;;17.92;49.99
63554;BME280;49699;48.072;7.800;2023-05-10T12:38:32;99165.66;;;17.84;50.40
63554;BME280;49699;48.072;7.800;2023-05-10T12:41:04;99159.44;;;17.76;50.92
63554;BME280;49699;48.072;7.800;2023-05-10T12:43:30;99160.13;;;17.78;51.50
63554;BME280;49699;48.072;7.800;2023-05-10T12:45:57;99167.47;;;17.84;51.71
63554;BME280;49699;48.072;7.800;2023-05-10T12:48:23;99168.41;;;17.92;51.63
63554;BME280;49699;48.072;7.800;2023-05-10T12:50:48;99175.47;;;18.01;51.46
63554;BME280;49699;48.072;7.800;2023-05-10T12:53:14;99176.13;;;18.23;50.75
63554;BME280;49699;48.072;7.800;2023-05-10T12:55:40;99181.56;;;18.49;49.74
63554;BME280;49699;48.072;7.800;2023-05-10T12:58:06;99181.94;;;18.63;49.00
63554;BME280;49699;48.072;7.800;2023-05-10T13:00:31;99181.28;;;18.89;48.14
63554;BME280;49699;48.072;7.800;2023-05-10T13:02:56;99185.16;;;18.94;47.55
63554;BME280;49699;48.072;7.800;2023-05-10T13:05:21;99188.44;;;18.79;47.87
63554;BME280;49699;48.072;7.800;2023-05-10T13:07:47;99189.34;;;18.60;47.78
63554;BME280;49699;48.072;7.800;2023-05-10T13:10:12;99185.78;;;18.32;48.22
63554;BME280;49699;48.072;7.800;2023-05-10T13:12:37;99190.31;;;18.02;49.18
63554;BME280;49699;48.072;7.800;2023-05-10T13:15:03;99193.78;;;17.84;49.87
63554;BME280;49699;48.072;7.800;2023-05-10T13:17:28;99191.00;;;17.76;50.20
63554;BME280;49699;48.072;7.800;2023-05-10T13:19:54;99204.75;;;17.69;50.76
63554;BME280;49699;48.072;7.800;2023-05-10T13:22:19;99201.41;;;17.67;51.18